Time;durP1;ratioP1;P1;durP2;ratioP2;P2;SDS_P1;SDS_P2;PMS_P1;PMS_P2;Temp;Humidity;BMP_temperature;BMP_pressure;BME280_temperature;BME280_humidity;BME280_pressure;Samples;Min_cycle;Max_cycle;Signal;HPM_P1;HPM_P2
2021/06/21 00:01:43;;;;;;;58.27;3.37;;;16.70;99.90;;;;;;5092903;28;20923;-71
2021/06/21 00:04:10;;;;;;;58.33;2.63;;;16.90;99.90;;;;;;5093101;28;20485;-71
2021/06/21 00:06:38;;;;;;;60.10;2.90;;;16.90;99.90;;;;;;5093115;28;20449;-71
2021/06/21 00:09:06;;;;;;;57.37;2.70;;;16.90;99.90;;;;;;5093195;28;21014;-71
2021/06/21 00:11:33;;;;;;;58.30;2.57;;;16.90;99.90;;;;;;5092456;28;21002;-72
2021/06/21 00:14:00;;;;;;;57.80;2.70;;;16.90;99.90;;;;;;5092913;28;20995;-73
2021/06/21 00:16:27;;;;;;;57.67;2.67;;;16.90;99.90;;;;;;5092907;28;20541;-71
2021/06/21 00:18:54;;;;;;;58.10;2.70;;;16.90;99.90;;;;;;5092953;28;20453;-73
2021/06/21 00:21:21;;;;;;;57.87;2.57;;;17.00;99.90;;;;;;5092716;28;20498;-72
2021/06/21 00:23:49;;;;;;;57.87;2.60;;;17.00;99.90;;;;;;5092598;28;20575;-74
2021/06/21 00:26:17;;;;;;;57.87;2.60;;;17.00;99.90;;;;;;5092510;28;20463;-72
2021/06/21 00:28:44;;;;;;;58.40;3.30;;;17.00;99.90;;;;;;5092778;28;20539;-74
2021/06/21 00:31:11;;;;;;;57.87;2.50;;;17.00;99.90;;;;;;5092479;28;20491;-73
2021/06/21 00:33:38;;;;;;;57.87;2.80;;;17.10;99.90;;;;;;5091566;28;20550;-72
2021/06/21 00:36:06;;;;;;;57.93;2.60;;;17.00;99.90;;;;;;5092525;28;20492;-72
2021/06/21 00:38:32;;;;;;;57.97;2.80;;;17.00;99.90;;;;;;5092388;28;20484;-73
2021/06/21 00:41:01;;;;;;;58.27;2.53;;;17.00;99.90;;;;;;5092328;28;20459;-72
2021/06/21 00:43:27;;;;;;;57.93;2.80;;;17.00;99.90;;;;;;5092080;28;21067;-71
2021/06/21 00:45:54;;;;;;;57.87;2.70;;;17.00;99.90;;;;;;5092320;28;21021;-72
2021/06/21 00:48:21;;;;;;;57.67;2.50;;;17.10;99.90;;;;;;5092519;28;20476;-72
2021/06/21 00:50:48;;;;;;;57.87;2.80;;;17.10;99.90;;;;;;5092805;28;20484;-72
2021/06/21 00:53:15;;;;;;;57.67;2.60;;;17.20;99.90;;;;;;5091680;28;21022;-72
2021/06/21 00:55:42;;;;;;;57.73;2.57;;;17.10;99.90;;;;;;5092472;28;20531;-72
2021/06/21 00:58:11;;;;;;;57.93;2.50;;;17.10;99.90;;;;;;5092326;28;20444;-72
2021/06/21 01:00:38;;;;;;;57.60;2.50;;;17.10;99.90;;;;;;5092312;28;20448;-72
2021/06/21 01:03:05;;;;;;;58.07;2.40;;;17.10;99.90;;;;;;5091602;28;20484;-71
2021/06/21 01:05:35;;;;;;;57.90;2.57;;;17.00;99.90;;;;;;5092060;28;20459;-71
2021/06/21 01:08:03;;;;;;;58.10;2.43;;;17.00;99.90;;;;;;5091948;28;20514;-71
2021/06/21 01:10:31;;;;;;;57.87;2.43;;;17.00;99.90;;;;;;5091982;28;20990;-71
2021/06/21 01:13:55;;;;;;;57.63;2.47;;;17.00;99.90;;;;;;5091614;28;20496;-72
2021/06/21 01:16:28;;;;;;;57.93;2.47;;;17.00;99.90;;;;;;5076194;28;20487;-72
2021/06/21 01:19:00;;;;;;;58.07;2.73;;;17.10;99.90;;;;;;5092031;28;20440;-71
2021/06/21 01:21:59;;;;;;;58.07;2.50;;;17.10;99.90;;;;;;5091599;28;21037;-71
2021/06/21 01:24:53;;;;;;;58.20;2.57;;;17.10;99.90;;;;;;5086628;28;20448;-71
2021/06/21 01:27:31;;;;;;;58.27;2.70;;;17.10;99.90;;;;;;5091863;28;20440;-74
2021/06/21 01:30:08;;;;;;;57.93;2.43;;;17.10;99.90;;;;;;5091821;28;20474;-72
2021/06/21 01:32:47;;;;;;;58.00;2.70;;;17.10;99.90;;;;;;5091556;28;20488;-72
2021/06/21 01:35:19;;;;;;;58.40;2.70;;;17.10;99.90;;;;;;5091936;28;20539;-74
2021/06/21 01:37:48;;;;;;;57.67;2.70;;;17.10;99.90;;;;;;5091926;28;20445;-72
2021/06/21 01:40:20;;;;;;;58.17;2.70;;;17.10;99.90;;;;;;5091791;28;20890;-71
2021/06/21 01:42:54;;;;;;;58.10;2.50;;;17.10;99.90;;;;;;5091361;28;20519;-72
2021/06/21 01:45:22;;;;;;;58.50;3.23;;;17.10;99.90;;;;;;5095558;28;20543;-72
2021/06/21 01:47:52;;;;;;;57.87;2.40;;;17.10;99.90;;;;;;5095634;28;20503;-72
2021/06/21 01:50:21;;;;;;;59.00;2.80;;;17.10;99.90;;;;;;5095725;28;20532;-72
2021/06/21 01:52:52;;;;;;;57.83;2.40;;;17.10;99.90;;;;;;5095291;28;20777;-72
2021/06/21 01:55:22;;;;;;;57.77;2.80;;;17.10;99.90;;;;;;5095682;28;20457;-72
2021/06/21 01:57:50;;;;;;;57.83;2.50;;;17.10;99.90;;;;;;5095373;28;20544;-72
2021/06/21 02:00:20;;;;;;;58.27;2.70;;;17.20;99.90;;;;;;5095752;28;20937;-72
2021/06/21 02:02:52;;;;;;;57.87;2.50;;;17.20;99.90;;;;;;5095213;28;20576;-72
2021/06/21 02:05:19;;;;;;;58.30;3.27;;;17.20;99.90;;;;;;5095592;28;20531;-74
2021/06/21 02:07:49;;;;;;;58.13;2.73;;;17.10;99.90;;;;;;5095437;28;20503;-72
2021/06/21 02:10:19;;;;;;;57.67;2.47;;;17.20;99.90;;;;;;5095351;28;20537;-72
2021/06/21 02:12:47;;;;;;;58.23;2.57;;;17.20;99.90;;;;;;5094892;28;20471;-72
2021/06/21 02:15:15;;;;;;;58.03;2.50;;;17.20;99.90;;;;;;5095427;28;20532;-72
2021/06/21 02:17:42;;;;;;;58.07;2.43;;;17.20;99.90;;;;;;5095075;28;20977;-72
2021/06/21 02:20:12;;;;;;;57.67;2.40;;;17.20;99.90;;;;;;5095311;28;20870;-72
2021/06/21 02:22:40;;;;;;;57.90;2.60;;;17.20;99.90;;;;;;5094641;28;20481;-72
2021/06/21 02:25:09;;;;;;;57.67;2.53;;;17.20;99.90;;;;;;5095118;28;20547;-72
2021/06/21 02:27:38;;;;;;;58.03;2.43;;;17.20;99.90;;;;;;5095024;28;21047;-73
2021/06/21 02:30:09;;;;;;;57.87;2.50;;;17.10;99.90;;;;;;5095209;28;20540;-72
2021/06/21 02:32:36;;;;;;;58.17;2.60;;;17.10;99.90;;;;;;5094545;28;20491;-73
2021/06/21 02:35:04;;;;;;;57.97;2.40;;;17.10;99.90;;;;;;5094875;28;20542;-72
2021/06/21 02:37:33;;;;;;;57.73;2.50;;;17.10;99.90;;;;;;5094738;28;21035;-72
2021/06/21 02:39:59;;;;;;;58.07;2.47;;;17.10;99.90;;;;;;5094912;28;20892;-75
2021/06/21 02:42:26;;;;;;;57.77;2.60;;;17.00;99.90;;;;;;5094457;28;20908;-72
2021/06/21 02:44:53;;;;;;;58.50;2.97;;;17.00;99.90;;;;;;5094807;28;20477;-72
2021/06/21 02:47:20;;;;;;;57.97;2.90;;;17.00;99.90;;;;;;5094670;28;21032;-72
2021/06/21 02:49:48;;;;;;;57.87;3.00;;;17.00;99.90;;;;;;5094527;28;20459;-72
2021/06/21 02:52:25;;;;;;;58.13;2.43;;;16.90;99.90;;;;;;5094031;28;21011;-72
2021/06/21 02:55:08;;;;;;;57.57;2.40;;;16.90;99.90;;;;;;5093938;28;20481;-72
2021/06/21 02:57:41;;;;;;;57.73;2.50;;;16.90;99.90;;;;;;5094658;28;20449;-72
2021/06/21 03:00:09;;;;;;;58.17;2.50;;;16.90;99.90;;;;;;5094333;28;20905;-73
2021/06/21 03:02:38;;;;;;;57.87;2.50;;;16.90;99.90;;;;;;5094013;28;20924;-72
2021/06/21 03:05:07;;;;;;;58.30;2.40;;;16.90;99.90;;;;;;5094493;28;20543;-72
2021/06/21 03:07:35;;;;;;;58.03;2.60;;;16.90;99.90;;;;;;5094403;28;20453;-72
2021/06/21 03:10:05;;;;;;;58.27;2.60;;;16.90;99.90;;;;;;5094114;28;20547;-72
2021/06/21 03:12:33;;;;;;;58.30;2.60;;;16.80;99.90;;;;;;5093931;28;20477;-72
2021/06/21 03:15:00;;;;;;;57.47;2.40;;;16.80;99.90;;;;;;5093923;28;20508;-72
2021/06/21 03:17:28;;;;;;;57.97;2.40;;;16.80;99.90;;;;;;5094201;28;20487;-72
2021/06/21 03:19:56;;;;;;;57.90;2.43;;;16.80;99.90;;;;;;5094010;28;20936;-72
2021/06/21 03:22:25;;;;;;;58.13;2.77;;;16.80;99.90;;;;;;5093546;28;21019;-72
2021/06/21 03:24:53;;;;;;;57.93;2.50;;;16.80;99.90;;;;;;5093995;28;20471;-72
2021/06/21 03:27:30;;;;;;;58.93;4.63;;;16.80;99.90;;;;;;5094287;28;20542;-73
2021/06/21 03:29:58;;;;;;;58.00;2.50;;;16.80;99.90;;;;;;5094223;28;20480;-72
2021/06/21 03:32:28;;;;;;;58.20;2.60;;;16.90;99.90;;;;;;5093507;28;20484;-72
2021/06/21 03:34:57;;;;;;;57.67;2.60;;;16.90;99.90;;;;;;5093630;28;20547;-72
2021/06/21 03:37:24;;;;;;;57.97;2.53;;;16.90;99.90;;;;;;5093675;28;20866;-72
2021/06/21 03:39:51;;;;;;;57.37;2.50;;;17.00;99.90;;;;;;5093625;28;20957;-73
2021/06/21 03:42:19;;;;;;;57.83;2.50;;;17.00;99.90;;;;;;5093379;28;20550;-73
2021/06/21 03:44:48;;;;;;;58.17;2.60;;;17.00;99.90;;;;;;5093667;28;20532;-72
2021/06/21 03:47:15;;;;;;;58.17;2.60;;;17.00;99.90;;;;;;5093488;28;20532;-72
2021/06/21 03:49:44;;;;;;;58.10;2.60;;;16.20;99.90;;;;;;5093427;28;20959;-73
2021/06/21 03:52:11;;;;;;;58.00;2.70;;;17.10;99.90;;;;;;5093021;28;20551;-72
2021/06/21 03:54:38;;;;;;;57.90;2.50;;;17.10;99.90;;;;;;5093156;28;20988;-72
2021/06/21 03:57:06;;;;;;;57.57;2.57;;;17.10;99.90;;;;;;5093494;28;20499;-73
2021/06/21 03:59:33;;;;;;;58.00;2.50;;;17.10;99.90;;;;;;5093403;28;20544;-73
2021/06/21 04:02:01;;;;;;;58.17;2.47;;;17.20;99.90;;;;;;5092790;28;20457;-72
2021/06/21 04:04:28;;;;;;;57.67;2.50;;;17.10;99.90;;;;;;5093579;28;20583;-74
2021/06/21 04:06:55;;;;;;;58.20;2.63;;;17.20;99.90;;;;;;5093087;28;20889;-72
2021/06/21 04:09:22;;;;;;;57.30;2.47;;;17.20;99.90;;;;;;5093486;28;20565;-74
2021/06/21 04:11:50;;;;;;;58.20;2.80;;;17.20;99.90;;;;;;5092673;28;20493;-72
2021/06/21 04:14:17;;;;;;;57.73;2.57;;;17.20;99.90;;;;;;5093054;28;20448;-73
2021/06/21 04:16:44;;;;;;;57.87;2.50;;;17.30;99.90;;;;;;5093066;28;20536;-73
2021/06/21 04:19:13;;;;;;;58.20;2.50;;;17.30;99.90;;;;;;5092827;28;20485;-73
2021/06/21 04:21:40;;;;;;;58.07;2.43;;;17.30;99.90;;;;;;5092588;28;20529;-73
2021/06/21 04:24:08;;;;;;;57.93;2.50;;;17.30;99.90;;;;;;5092863;28;20488;-73
2021/06/21 04:26:37;;;;;;;57.87;2.40;;;17.30;99.90;;;;;;5092643;28;20458;-73
2021/06/21 04:29:05;;;;;;;58.17;2.50;;;17.30;99.90;;;;;;5092519;28;20459;-74
2021/06/21 04:31:32;;;;;;;58.30;2.50;;;17.30;99.90;;;;;;5092439;28;20449;-73
2021/06/21 04:33:59;;;;;;;57.67;2.43;;;17.30;99.90;;;;;;5092923;28;20867;-74
2021/06/21 04:36:28;;;;;;;58.07;2.60;;;17.30;99.90;;;;;;5092504;28;21040;-73
2021/06/21 04:38:55;;;;;;;57.60;2.57;;;17.30;99.90;;;;;;5092503;28;20452;-75
2021/06/21 04:41:21;;;;;;;58.30;2.70;;;17.30;99.90;;;;;;5092579;28;20543;-73
2021/06/21 04:43:48;;;;;;;57.87;2.40;;;17.30;99.90;;;;;;5092417;28;20501;-73
2021/06/21 04:46:15;;;;;;;58.00;2.30;;;17.40;99.90;;;;;;5092297;28;20492;-74
2021/06/21 04:48:43;;;;;;;57.87;2.60;;;17.30;99.90;;;;;;5092450;28;20540;-73
2021/06/21 04:51:10;;;;;;;57.97;2.47;;;17.30;99.90;;;;;;5092389;28;20453;-74
2021/06/21 04:53:38;;;;;;;57.20;2.43;;;17.30;99.90;;;;;;5092314;28;20555;-73
2021/06/21 04:56:05;;;;;;;58.10;2.50;;;17.30;99.90;;;;;;5092376;28;20489;-73
2021/06/21 04:58:34;;;;;;;58.30;2.90;;;17.30;99.90;;;;;;5092309;28;20445;-74
2021/06/21 05:01:02;;;;;;;57.87;2.60;;;17.30;99.90;;;;;;5092067;28;20536;-75
2021/06/21 05:03:29;;;;;;;58.17;2.50;;;17.20;99.90;;;;;;5092270;28;21004;-74
2021/06/21 05:05:56;;;;;;;64.27;3.03;;;17.60;99.90;;;;;;5091865;28;20544;-75
2021/06/21 05:08:23;;;;;;;58.40;2.50;;;17.20;99.90;;;;;;5092509;28;20544;-74
2021/06/21 05:10:51;;;;;;;58.27;3.27;;;17.20;99.90;;;;;;5092311;28;20485;-74
2021/06/21 05:13:19;;;;;;;58.17;2.40;;;17.20;99.90;;;;;;5092262;28;20509;-74
2021/06/21 05:15:45;;;;;;;57.70;2.77;;;17.20;99.90;;;;;;5091898;28;20818;-74
2021/06/21 05:18:12;;;;;;;58.20;2.43;;;17.20;99.90;;;;;;5091751;28;20453;-74
2021/06/21 05:20:39;;;;;;;57.67;2.40;;;17.20;99.90;;;;;;5092090;28;20896;-74
2021/06/21 05:23:06;;;;;;;57.87;2.30;;;17.10;99.90;;;;;;5091751;28;20507;-75
2021/06/21 05:25:33;;;;;;;58.00;2.40;;;17.20;99.90;;;;;;5091955;28;20488;-74
2021/06/21 05:28:03;;;;;;;57.87;2.37;;;17.30;99.90;;;;;;5091863;28;20998;-75
2021/06/21 05:30:30;;;;;;;57.73;2.50;;;17.30;99.90;;;;;;5091784;28;20606;-74
2021/06/21 05:32:57;;;;;;;57.67;2.83;;;17.30;99.90;;;;;;5091385;28;20483;-74
2021/06/21 05:35:24;;;;;;;57.77;2.63;;;17.30;99.90;;;;;;5092035;28;20452;-74
2021/06/21 05:37:51;;;;;;;57.97;3.07;;;17.70;99.90;;;;;;5091648;28;20450;-75
2021/06/21 05:40:19;;;;;;;58.07;2.40;;;17.30;99.90;;;;;;5091839;28;20445;-75
2021/06/21 05:42:46;;;;;;;58.20;2.50;;;17.40;99.90;;;;;;5091198;28;20496;-75
2021/06/21 05:45:17;;;;;;;57.87;2.40;;;17.40;99.90;;;;;;5091469;28;20547;-74
2021/06/21 05:47:44;;;;;;;58.07;2.70;;;17.40;99.90;;;;;;5091815;28;20481;-75
2021/06/21 05:50:11;;;;;;;57.77;2.40;;;17.50;99.90;;;;;;5091857;28;20453;-76
2021/06/21 05:52:38;;;;;;;58.07;2.40;;;17.50;99.90;;;;;;5091309;28;20501;-76
2021/06/21 05:55:06;;;;;;;57.97;2.40;;;17.50;99.90;;;;;;5091625;28;20480;-74
2021/06/21 05:57:33;;;;;;;58.13;2.50;;;17.60;99.90;;;;;;5091259;28;20481;-76
2021/06/21 06:00:00;;;;;;;57.73;2.40;;;17.70;99.90;;;;;;5091769;28;20477;-75
2021/06/21 06:02:28;;;;;;;58.50;2.50;;;17.70;99.90;;;;;;5091344;28;20469;-74
2021/06/21 06:04:55;;;;;;;58.07;2.93;;;17.90;99.90;;;;;;5091746;28;20580;-74
2021/06/21 06:07:23;;;;;;;58.23;2.43;;;17.90;99.90;;;;;;5091619;28;20449;-75
2021/06/21 06:09:51;;;;;;;58.13;2.37;;;18.00;99.90;;;;;;5091340;28;20892;-75
2021/06/21 06:12:18;;;;;;;57.87;2.30;;;18.10;99.90;;;;;;5090990;28;20477;-74
2021/06/21 06:14:45;;;;;;;58.20;2.30;;;18.40;99.90;;;;;;5091512;28;20532;-75
2021/06/21 06:17:12;;;;;;;58.50;2.50;;;18.20;99.90;;;;;;5091635;28;20526;-75
2021/06/21 06:19:40;;;;;;;57.77;2.27;;;18.20;99.90;;;;;;5091294;28;20867;-74
2021/06/21 06:22:07;;;;;;;57.97;2.50;;;18.30;99.90;;;;;;5090950;28;20478;-74
2021/06/21 06:24:34;;;;;;;57.93;2.60;;;18.30;99.90;;;;;;5090947;28;20545;-74
2021/06/21 06:27:01;;;;;;;57.87;2.40;;;18.30;99.90;;;;;;5091332;28;20470;-71
2021/06/21 06:29:30;;;;;;;57.77;2.50;;;18.40;99.90;;;;;;5091515;28;20860;-73
2021/06/21 06:31:56;;;;;;;57.60;2.47;;;18.40;99.90;;;;;;5093777;28;20938;-73
2021/06/21 06:34:24;;;;;;;57.97;2.50;;;18.40;99.90;;;;;;5094909;28;20491;-72
2021/06/21 06:36:53;;;;;;;57.97;2.60;;;18.40;99.90;;;;;;5094927;28;20457;-71
2021/06/21 06:39:20;;;;;;;58.33;2.40;;;18.40;99.90;;;;;;5094592;28;20541;-72
2021/06/21 06:41:47;;;;;;;58.07;2.50;;;18.50;99.90;;;;;;5094580;28;20448;-73
2021/06/21 06:44:14;;;;;;;58.57;2.50;;;18.50;99.90;;;;;;5094868;28;20480;-71
2021/06/21 06:46:41;;;;;;;57.97;2.40;;;18.70;99.90;;;;;;5094584;28;20537;-73
2021/06/21 06:49:09;;;;;;;57.93;2.50;;;18.60;99.90;;;;;;5094566;28;20447;-73
2021/06/21 06:51:39;;;;;;;58.33;2.50;;;18.70;99.90;;;;;;5094199;28;20482;-71
2021/06/21 06:54:11;;;;;;;57.60;2.40;;;18.80;99.90;;;;;;5094665;28;20457;-73
2021/06/21 06:59:23;;;;;;;58.30;2.40;;;18.90;99.90;;;;;;5094454;28;20897;-74
2021/06/21 07:01:49;;;;;;;58.07;2.50;;;19.00;99.90;;;;;;5094643;28;20534;-74
2021/06/21 07:04:17;;;;;;;58.30;2.37;;;19.00;99.90;;;;;;5094150;28;20602;-73
2021/06/21 07:06:44;;;;;;;57.97;2.43;;;19.00;99.90;;;;;;5094276;28;20540;-74
2021/06/21 07:09:12;;;;;;;57.97;2.40;;;19.10;99.90;;;;;;5094318;28;20453;-74
2021/06/21 07:11:40;;;;;;;57.97;2.40;;;19.10;99.90;;;;;;5093818;28;20962;-74
2021/06/21 07:14:08;;;;;;;58.03;2.53;;;19.20;99.90;;;;;;5094575;28;20466;-73
2021/06/21 07:16:36;;;;;;;58.40;2.50;;;19.20;99.90;;;;;;5093881;28;20483;-72
2021/06/21 07:19:04;;;;;;;58.07;2.40;;;19.30;99.90;;;;;;5094222;28;20483;-72
2021/06/21 07:21:31;;;;;;;58.30;2.30;;;19.50;99.90;;;;;;5093833;28;20819;-74
2021/06/21 07:23:59;;;;;;;58.30;2.40;;;19.40;99.90;;;;;;5093929;28;21044;-72
2021/06/21 07:26:27;;;;;;;57.87;2.40;;;19.40;99.90;;;;;;5093752;28;20539;-73
2021/06/21 07:28:54;;;;;;;58.17;2.30;;;19.50;99.90;;;;;;5093956;28;20526;-73
2021/06/21 07:31:21;;;;;;;57.93;2.23;;;19.50;99.90;;;;;;5093617;28;21022;-73
2021/06/21 07:33:48;;;;;;;58.37;2.60;;;19.60;99.90;;;;;;5093890;28;20474;-72
2021/06/21 07:36:15;;;;;;;58.27;2.47;;;19.70;99.90;;;;;;5093815;28;20439;-73
2021/06/21 07:38:42;;;;;;;58.50;2.60;;;19.70;99.90;;;;;;5093618;28;20440;-73
2021/06/21 07:41:09;;;;;;;58.17;2.53;;;19.60;99.90;;;;;;5093166;28;20444;-72
2021/06/21 07:43:37;;;;;;;58.50;2.30;;;19.70;99.90;;;;;;5093260;28;20492;-73
2021/06/21 07:46:05;;;;;;;58.30;2.33;;;19.80;99.90;;;;;;5093799;28;20910;-72
2021/06/21 07:48:34;;;;;;;58.07;2.40;;;19.80;99.90;;;;;;5093575;28;20454;-72
2021/06/21 07:51:02;;;;;;;57.83;2.50;;;19.90;99.90;;;;;;5093351;28;21033;-72
2021/06/21 07:53:29;;;;;;;58.10;2.73;;;20.00;99.90;;;;;;5093053;28;20472;-72
2021/06/21 07:55:56;;;;;;;58.07;2.50;;;20.10;99.90;;;;;;5093475;28;20452;-73
2021/06/21 07:58:23;;;;;;;57.77;2.40;;;20.30;99.90;;;;;;5093059;28;20950;-72
2021/06/21 08:00:51;;;;;;;57.73;2.40;;;20.40;99.90;;;;;;5093479;28;20548;-72
2021/06/21 08:03:18;;;;;;;58.27;2.40;;;20.30;98.00;;;;;;5092933;28;20551;-72
2021/06/21 08:05:49;;;;;;;57.57;2.50;;;20.40;99.90;;;;;;5093313;28;20905;-72
2021/06/21 08:08:16;;;;;;;58.03;2.70;;;20.40;97.30;;;;;;5093081;28;20442;-72
2021/06/21 08:10:43;;;;;;;58.10;2.50;;;20.60;92.00;;;;;;5093020;28;20540;-72
2021/06/21 08:13:09;;;;;;;58.13;2.50;;;20.60;94.00;;;;;;5093069;28;20561;-71
2021/06/21 08:15:36;;;;;;;58.37;2.70;;;20.70;95.80;;;;;;5093019;28;20477;-72
2021/06/21 08:18:05;;;;;;;58.07;2.47;;;20.70;92.80;;;;;;5093278;28;20446;-72
2021/06/21 08:20:34;;;;;;;58.27;2.33;;;20.70;93.90;;;;;;5093133;28;20474;-72
2021/06/21 08:23:01;;;;;;;57.77;2.30;;;20.70;96.00;;;;;;5092331;28;20550;-72
2021/06/21 08:25:28;;;;;;;57.87;2.43;;;20.80;99.50;;;;;;5092623;28;20584;-73
2021/06/21 08:27:55;;;;;;;58.17;2.30;;;20.80;92.60;;;;;;5092578;28;20450;-72
2021/06/21 08:30:22;;;;;;;58.50;2.50;;;20.90;92.30;;;;;;5092832;28;20533;-72
2021/06/21 08:32:49;;;;;;;57.97;2.50;;;21.10;86.20;;;;;;5092534;28;20517;-74
2021/06/21 08:35:17;;;;;;;58.27;2.40;;;21.20;89.50;;;;;;5093177;28;20525;-72
2021/06/21 08:37:44;;;;;;;58.33;2.67;;;21.20;84.10;;;;;;5092478;28;20543;-72
2021/06/21 08:40:13;;;;;;;58.23;2.40;;;21.30;82.60;;;;;;5092605;28;20544;-73
2021/06/21 08:42:40;;;;;;;58.60;2.80;;;21.30;81.50;;;;;;5092253;28;20557;-73
2021/06/21 08:45:08;;;;;;;58.50;2.43;;;21.30;82.80;;;;;;5092592;28;20517;-72
2021/06/21 08:47:36;;;;;;;58.03;2.13;;;21.20;81.00;;;;;;5081965;28;20526;-73
2021/06/21 08:50:07;;;;;;;58.20;2.60;;;21.20;82.70;;;;;;5071993;28;20487;-72
2021/06/21 08:52:35;;;;;;;58.80;2.83;;;21.30;75.90;;;;;;5071322;28;20521;-72
2021/06/21 08:55:04;;;;;;;58.17;2.30;;;21.30;75.90;;;;;;5071760;28;20526;-73
2021/06/21 08:57:31;;;;;;;57.97;2.50;;;21.30;78.30;;;;;;5072254;28;20834;-72
2021/06/21 08:59:58;;;;;;;58.07;2.23;;;21.30;90.20;;;;;;5072059;28;20481;-72
2021/06/21 09:02:28;;;;;;;57.97;2.37;;;21.20;86.40;;;;;;5071686;28;20473;-72
2021/06/21 09:04:55;;;;;;;58.27;2.30;;;21.30;75.70;;;;;;5071835;28;21064;-73
2021/06/21 09:07:23;;;;;;;57.97;2.33;;;21.40;73.60;;;;;;5071628;28;20813;-73
2021/06/21 09:09:53;;;;;;;58.03;2.30;;;21.50;81.80;;;;;;5071982;28;20475;-73
2021/06/21 09:12:22;;;;;;;58.03;2.20;;;21.60;79.80;;;;;;5072128;28;20911;-73
2021/06/21 09:14:50;;;;;;;58.07;2.30;;;21.50;79.20;;;;;;5070609;28;20497;-73
2021/06/21 09:17:21;;;;;;;58.20;2.50;;;21.60;76.00;;;;;;5069898;28;20482;-71
2021/06/21 09:19:54;;;;;;;58.27;2.47;;;21.70;70.50;;;;;;5061210;28;20455;-71
2021/06/21 09:22:31;;;;;;;57.70;2.20;;;21.80;73.60;;;;;;5051289;28;20562;-71
2021/06/21 09:25:01;;;;;;;57.97;2.40;;;22.00;78.30;;;;;;5051812;28;20627;-71
2021/06/21 09:27:27;;;;;;;58.03;2.43;;;22.20;68.60;;;;;;5051662;28;20483;-71
2021/06/21 09:29:55;;;;;;;58.03;2.30;;;22.10;71.30;;;;;;5051480;28;20543;-72
2021/06/21 09:32:38;;;;;;;57.97;2.30;;;22.10;73.10;;;;;;5051469;28;20472;-71
2021/06/21 09:35:05;;;;;;;57.93;2.40;;;22.20;76.10;;;;;;5051748;28;20448;-71
2021/06/21 09:37:44;;;;;;;58.20;2.30;;;22.20;69.60;;;;;;5051562;28;20552;-72
2021/06/21 09:40:25;;;;;;;58.80;3.53;;;22.20;70.90;;;;;;5051593;28;20451;-71
2021/06/21 09:42:52;;;;;;;57.87;2.30;;;22.30;68.50;;;;;;5051399;28;20478;-71
2021/06/21 09:45:19;;;;;;;58.07;2.40;;;22.20;64.00;;;;;;5051633;28;20511;-71
2021/06/21 09:47:46;;;;;;;58.10;2.30;;;22.20;65.40;;;;;;5051533;28;20525;-71
2021/06/21 09:50:15;;;;;;;58.03;2.80;;;22.30;68.70;;;;;;5063683;28;20490;-73
2021/06/21 09:52:50;;;;;;;57.83;2.13;;;22.40;64.60;;;;;;5070995;28;20982;-73
2021/06/21 09:55:31;;;;;;;57.93;2.13;;;22.50;65.40;;;;;;5071648;28;20525;-73
2021/06/21 09:58:18;;;;;;;57.90;2.10;;;22.60;62.80;;;;;;5071565;28;20442;-72
2021/06/21 10:00:46;;;;;;;58.10;2.20;;;22.60;61.10;;;;;;5070051;28;20822;-73
2021/06/21 10:03:16;;;;;;;58.20;2.40;;;22.60;62.80;;;;;;5070639;28;20506;-73
2021/06/21 10:05:46;;;;;;;57.67;2.10;;;22.90;60.10;;;;;;5074273;28;20482;-73
2021/06/21 10:08:14;;;;;;;58.07;2.20;;;23.10;62.10;;;;;;5075311;28;20444;-73
2021/06/21 10:10:44;;;;;;;57.87;2.10;;;23.30;63.30;;;;;;5075177;28;20735;-74
2021/06/21 10:13:12;;;;;;;57.83;2.20;;;23.20;66.50;;;;;;5074702;28;20464;-74
2021/06/21 10:15:39;;;;;;;58.00;2.10;;;23.30;60.30;;;;;;5074997;28;20445;-74
2021/06/21 10:18:07;;;;;;;57.93;2.00;;;23.50;65.40;;;;;;5074770;28;20545;-74
2021/06/21 10:20:34;;;;;;;57.83;1.90;;;23.90;60.90;;;;;;5075284;28;20449;-73
2021/06/21 10:23:07;;;;;;;57.93;2.13;;;24.10;63.40;;;;;;5074499;28;20553;-73
2021/06/21 10:25:34;;;;;;;57.77;1.93;;;24.60;64.20;;;;;;5074809;28;20490;-73
2021/06/21 10:28:03;;;;;;;57.90;2.40;;;25.80;58.60;;;;;;5075077;28;20877;-74
2021/06/21 10:30:32;;;;;;;57.77;1.93;;;27.40;54.10;;;;;;5074902;28;20448;-74
2021/06/21 10:33:00;;;;;;;57.57;2.10;;;28.60;38.90;;;;;;5074313;28;20473;-74
2021/06/21 10:35:31;;;;;;;57.57;2.23;;;29.40;41.10;;;;;;5074648;28;20447;-74
2021/06/21 10:38:04;;;;;;;57.50;1.90;;;29.90;34.80;;;;;;5074719;28;20451;-74
2021/06/21 10:40:31;;;;;;;57.47;2.00;;;29.50;41.30;;;;;;5074702;28;20458;-73
2021/06/21 10:42:58;;;;;;;57.77;2.50;;;28.70;38.10;;;;;;5074208;28;20467;-73
2021/06/21 10:45:28;;;;;;;57.40;2.07;;;28.00;41.10;;;;;;5074628;28;20585;-73
2021/06/21 10:48:09;;;;;;;57.57;2.10;;;28.70;38.80;;;;;;5074737;28;20471;-73
2021/06/21 10:50:50;;;;;;;57.33;1.90;;;29.80;35.70;;;;;;5074346;28;20534;-73
2021/06/21 10:53:17;;;;;;;57.97;3.30;;;29.50;40.00;;;;;;5073933;28;20997;-73
2021/06/21 10:55:49;;;;;;;57.47;2.20;;;29.40;38.60;;;;;;5074566;28;20459;-73
2021/06/21 10:58:44;;;;;;;57.60;2.07;;;29.00;36.00;;;;;;5074509;28;20455;-73
2021/06/21 11:01:23;;;;;;;57.40;1.90;;;28.40;35.30;;;;;;5073969;28;20444;-73
2021/06/21 11:03:51;;;;;;;57.70;2.13;;;29.70;31.70;;;;;;5073864;28;20463;-75
2021/06/21 11:06:45;;;;;;;58.47;2.77;;;31.10;38.90;;;;;;5073990;28;20518;-73
2021/06/21 11:09:12;;;;;;;57.20;1.90;;;32.70;39.00;;;;;;5049486;28;20538;-71
2021/06/21 11:11:54;;;;;;;57.13;1.90;;;33.80;35.70;;;;;;5073683;28;20500;-70
2021/06/21 11:14:27;;;;;;;57.30;1.90;;;34.60;21.50;;;;;;5074115;28;20450;-73
2021/06/21 11:17:22;;;;;;;57.17;2.00;;;35.00;27.20;;;;;;5073392;28;20807;-71
2021/06/21 11:19:49;;;;;;;57.10;1.90;;;35.70;22.50;;;;;;5074014;28;20819;-73
2021/06/21 11:22:16;;;;;;;57.07;1.80;;;36.10;20.50;;;;;;5073431;28;21046;-71
2021/06/21 11:24:57;;;;;;;56.77;2.00;;;36.50;18.70;;;;;;5073676;28;20474;-69
2021/06/21 11:27:27;;;;;;;57.60;2.83;;;36.70;17.20;;;;;;5073915;28;20442;-69
2021/06/21 11:29:56;;;;;;;57.00;2.03;;;36.80;17.20;;;;;;5074074;28;20489;-72
2021/06/21 11:32:25;;;;;;;56.93;1.83;;;36.00;16.30;;;;;;5073376;28;20511;-72
2021/06/21 11:34:54;;;;;;;57.17;2.40;;;34.90;18.50;;;;;;5073519;28;20530;-73
2021/06/21 11:37:36;;;;;;;56.97;1.80;;;34.80;18.10;;;;;;5074183;28;20459;-73
2021/06/21 11:40:28;;;;;;;57.17;1.90;;;34.80;16.80;;;;;;5093837;28;20474;-73
2021/06/21 11:43:12;;;;;;;57.00;1.90;;;35.10;17.20;;;;;;5093340;28;20469;-72
2021/06/21 11:45:49;;;;;;;56.97;1.80;;;34.90;16.90;;;;;;5093942;28;20577;-72
2021/06/21 11:48:22;;;;;;;56.83;1.90;;;34.70;17.80;;;;;;5093559;28;20446;-73
2021/06/21 11:50:50;;;;;;;57.80;2.67;;;35.90;17.40;;;;;;5093625;28;20529;-73
2021/06/21 11:53:17;;;;;;;57.20;1.90;;;37.10;15.20;;;;;;5093091;28;20467;-73
2021/06/21 11:55:44;;;;;;;56.67;2.07;;;37.80;14.80;;;;;;5093323;28;20489;-73
2021/06/21 11:58:11;;;;;;;56.90;2.10;;;38.60;15.00;;;;;;5093288;28;20486;-73
2021/06/21 12:00:39;;;;;;;56.80;1.90;;;38.30;17.30;;;;;;5093621;28;20473;-73
2021/06/21 12:03:08;;;;;;;56.80;1.90;;;37.20;14.70;;;;;;5092127;28;20477;-73
2021/06/21 12:05:37;;;;;;;56.87;2.07;;;36.50;16.90;;;;;;5093241;28;20505;-73
2021/06/21 12:08:13;;;;;;;57.27;2.30;;;35.70;19.10;;;;;;5092960;28;20933;-73
2021/06/21 12:10:40;;;;;;;56.73;1.90;;;36.20;18.60;;;;;;5093329;28;20489;-73
2021/06/21 12:13:07;;;;;;;56.67;1.90;;;37.00;16.40;;;;;;5092817;28;20554;-73
2021/06/21 12:15:37;;;;;;;56.70;1.83;;;38.10;16.70;;;;;;5093339;28;20438;-73
2021/06/21 12:18:04;;;;;;;57.50;2.70;;;39.00;15.20;;;;;;5092894;28;20449;-72
2021/06/21 12:20:33;;;;;;;56.77;1.90;;;39.90;15.90;;;;;;5093341;28;20541;-73
2021/06/21 12:23:03;;;;;;;58.27;2.20;;;40.50;17.10;;;;;;5092376;28;20470;-74
2021/06/21 12:25:32;;;;;;;56.63;1.90;;;41.10;15.40;;;;;;5092614;28;20462;-73
2021/06/21 12:28:16;;;;;;;56.07;1.80;;;41.10;15.90;;;;;;5091992;28;20553;-73
2021/06/21 12:30:47;;;;;;;56.70;1.90;;;41.30;13.10;;;;;;5093170;28;20525;-73
2021/06/21 12:33:31;;;;;;;57.40;2.53;;;41.80;15.00;;;;;;5092308;28;20840;-73
2021/06/21 12:36:14;;;;;;;56.50;1.90;;;42.10;11.70;;;;;;5092803;28;20450;-73
2021/06/21 12:38:46;;;;;;;56.67;2.20;;;42.30;10.70;;;;;;5092780;28;20450;-73
2021/06/21 12:41:19;;;;;;;56.27;1.80;;;42.50;13.30;;;;;;5092588;28;20478;-73
2021/06/21 12:43:57;;;;;;;56.57;1.90;;;42.80;15.70;;;;;;5092417;28;20530;-73
2021/06/21 12:46:26;;;;;;;56.60;2.00;;;43.00;15.50;;;;;;5092780;28;20568;-73
2021/06/21 12:48:54;;;;;;;56.07;1.90;;;43.00;15.50;;;;;;5092895;28;20544;-73
2021/06/21 12:51:21;;;;;;;56.27;1.90;;;43.10;14.90;;;;;;5092286;28;20447;-73